sensor_id;sensor_type;location;lat;lon;timestamp;P1;durP1;ratioP1;P2;durP2;ratioP2
2618;SDS011;1319;52.346;13.096;2023-01-29T00:01:20;14.33;;;8.73;;
2618;SDS011;1319;52.346;13.096;2023-01-29T00:03:45;16.30;;;8.27;;
2618;SDS011;1319;52.346;13.096;2023-01-29T00:06:11;15.00;;;8.50;;
2618;SDS011;1319;52.346;13.096;2023-01-29T00:08:37;13.70;;;8.50;;
2618;SDS011;1319;52.346;13.096;2023-01-29T00:11:03;13.03;;;7.87;;
2618;SDS011;1319;52.346;13.096;2023-01-29T00:13:28;15.50;;;8.43;;
2618;SDS011;1319;52.346;13.096;2023-01-29T00:15:57;16.07;;;8.60;;
2618;SDS011;1319;52.346;13.096;2023-01-29T00:18:23;16.07;;;8.07;;
2618;SDS011;1319;52.346;13.096;2023-01-29T00:20:48;12.70;;;8.20;;
2618;SDS011;1319;52.346;13.096;2023-01-29T00:23:13;15.77;;;8.17;;
2618;SDS011;1319;52.346;13.096;2023-01-29T00:25:39;16.13;;;8.30;;
2618;SDS011;1319;52.346;13.096;2023-01-29T00:28:04;21.17;;;8.90;;
2618;SDS011;1319;52.346;13.096;2023-01-29T00:30:30;13.07;;;8.20;;
2618;SDS011;1319;52.346;13.096;2023-01-29T00:32:56;13.53;;;8.10;;
2618;SDS011;1319;52.346;13.096;2023-01-29T00:35:21;15.50;;;8.40;;
2618;SDS011;1319;52.346;13.096;2023-01-29T00:37:46;15.70;;;7.90;;
2618;SDS011;1319;52.346;13.096;2023-01-29T00:40:11;17.07;;;8.03;;
2618;SDS011;1319;52.346;13.096;2023-01-29T00:42:37;13.47;;;8.40;;
2618;SDS011;1319;52.346;13.096;2023-01-29T00:45:24;19.27;;;9.43;;
2618;SDS011;1319;52.346;13.096;2023-01-29T00:47:49;16.63;;;9.53;;
2618;SDS011;1319;52.346;13.096;2023-01-29T00:50:14;14.80;;;9.30;;
2618;SDS011;1319;52.346;13.096;2023-01-29T00:52:39;17.60;;;9.53;;
2618;SDS011;1319;52.346;13.096;2023-01-29T00:55:05;17.97;;;9.33;;
2618;SDS011;1319;52.346;13.096;2023-01-29T00:57:31;14.73;;;8.60;;
2618;SDS011;1319;52.346;13.096;2023-01-29T00:59:57;16.97;;;9.43;;
2618;SDS011;1319;52.346;13.096;2023-01-29T01:02:22;17.30;;;9.23;;
2618;SDS011;1319;52.346;13.096;2023-01-29T01:05:07;18.47;;;8.37;;
2618;SDS011;1319;52.346;13.096;2023-01-29T01:07:38;18.87;;;10.13;;
2618;SDS011;1319;52.346;13.096;2023-01-29T01:10:03;19.67;;;10.13;;
2618;SDS011;1319;52.346;13.096;2023-01-29T01:13:05;16.70;;;9.80;;
2618;SDS011;1319;52.346;13.096;2023-01-29T01:15:32;18.90;;;9.73;;
2618;SDS011;1319;52.346;13.096;2023-01-29T01:17:59;18.40;;;10.67;;
2618;SDS011;1319;52.346;13.096;2023-01-29T01:20:25;18.53;;;10.57;;
2618;SDS011;1319;52.346;13.096;2023-01-29T01:22:52;21.00;;;9.90;;
2618;SDS011;1319;52.346;13.096;2023-01-29T01:25:17;20.93;;;9.97;;
2618;SDS011;1319;52.346;13.096;2023-01-29T01:27:43;18.27;;;10.40;;
2618;SDS011;1319;52.346;13.096;2023-01-29T01:30:12;18.53;;;10.07;;
2618;SDS011;1319;52.346;13.096;2023-01-29T01:32:37;19.30;;;10.07;;
2618;SDS011;1319;52.346;13.096;2023-01-29T01:35:03;19.33;;;11.00;;
2618;SDS011;1319;52.346;13.096;2023-01-29T01:37:28;19.37;;;10.27;;
2618;SDS011;1319;52.346;13.096;2023-01-29T01:39:53;16.83;;;10.23;;
2618;SDS011;1319;52.346;13.096;2023-01-29T01:42:26;18.90;;;10.60;;
2618;SDS011;1319;52.346;13.096;2023-01-29T01:44:55;16.40;;;10.30;;
2618;SDS011;1319;52.346;13.096;2023-01-29T01:47:25;21.03;;;10.33;;
2618;SDS011;1319;52.346;13.096;2023-01-29T01:49:52;20.83;;;10.90;;
2618;SDS011;1319;52.346;13.096;2023-01-29T01:52:18;18.73;;;10.10;;
2618;SDS011;1319;52.346;13.096;2023-01-29T01:54:44;19.23;;;10.67;;
2618;SDS011;1319;52.346;13.096;2023-01-29T01:57:11;17.60;;;10.43;;
2618;SDS011;1319;52.346;13.096;2023-01-29T01:59:40;19.67;;;10.63;;
2618;SDS011;1319;52.346;13.096;2023-01-29T02:02:06;19.90;;;10.73;;
2618;SDS011;1319;52.346;13.096;2023-01-29T02:04:50;20.13;;;10.73;;
2618;SDS011;1319;52.346;13.096;2023-01-29T02:07:35;19.07;;;10.80;;
2618;SDS011;1319;52.346;13.096;2023-01-29T02:10:22;21.03;;;10.23;;
2618;SDS011;1319;52.346;13.096;2023-01-29T02:12:48;21.43;;;11.33;;
2618;SDS011;1319;52.346;13.096;2023-01-29T02:15:13;18.03;;;11.07;;
2618;SDS011;1319;52.346;13.096;2023-01-29T02:17:38;22.00;;;10.73;;
2618;SDS011;1319;52.346;13.096;2023-01-29T02:25:02;21.07;;;10.13;;
2618;SDS011;1319;52.346;13.096;2023-01-29T02:32:49;20.97;;;11.20;;
2618;SDS011;1319;52.346;13.096;2023-01-29T02:35:28;18.77;;;10.33;;
2618;SDS011;1319;52.346;13.096;2023-01-29T02:40:44;17.77;;;9.63;;
2618;SDS011;1319;52.346;13.096;2023-01-29T02:43:21;18.37;;;10.70;;
2618;SDS011;1319;52.346;13.096;2023-01-29T02:48:27;21.07;;;11.10;;
2618;SDS011;1319;52.346;13.096;2023-01-29T02:51:01;20.20;;;11.10;;
2618;SDS011;1319;52.346;13.096;2023-01-29T02:53:34;20.40;;;10.17;;
2618;SDS011;1319;52.346;13.096;2023-01-29T02:58:29;19.97;;;10.93;;
2618;SDS011;1319;52.346;13.096;2023-01-29T03:00:55;18.83;;;11.23;;
2618;SDS011;1319;52.346;13.096;2023-01-29T03:03:35;22.13;;;11.00;;
2618;SDS011;1319;52.346;13.096;2023-01-29T03:08:31;18.67;;;10.93;;
2618;SDS011;1319;52.346;13.096;2023-01-29T03:11:06;22.37;;;11.17;;
2618;SDS011;1319;52.346;13.096;2023-01-29T03:18:45;22.43;;;10.90;;
2618;SDS011;1319;52.346;13.096;2023-01-29T03:21:19;19.63;;;11.33;;
2618;SDS011;1319;52.346;13.096;2023-01-29T03:24:03;22.90;;;11.83;;
2618;SDS011;1319;52.346;13.096;2023-01-29T03:26:48;23.70;;;11.17;;
2618;SDS011;1319;52.346;13.096;2023-01-29T03:29:32;24.20;;;11.10;;
2618;SDS011;1319;52.346;13.096;2023-01-29T03:32:17;20.20;;;10.70;;
2618;SDS011;1319;52.346;13.096;2023-01-29T03:34:46;20.90;;;11.70;;
2618;SDS011;1319;52.346;13.096;2023-01-29T03:37:15;20.33;;;12.10;;
2618;SDS011;1319;52.346;13.096;2023-01-29T03:39:43;18.40;;;11.17;;
2618;SDS011;1319;52.346;13.096;2023-01-29T03:44:34;27.17;;;12.07;;
2618;SDS011;1319;52.346;13.096;2023-01-29T03:47:15;22.00;;;11.43;;
2618;SDS011;1319;52.346;13.096;2023-01-29T03:52:13;22.60;;;11.83;;
2618;SDS011;1319;52.346;13.096;2023-01-29T03:54:48;21.97;;;11.27;;
2618;SDS011;1319;52.346;13.096;2023-01-29T04:02:09;21.90;;;11.93;;
2618;SDS011;1319;52.346;13.096;2023-01-29T04:04:36;21.97;;;12.30;;
2618;SDS011;1319;52.346;13.096;2023-01-29T04:07:09;23.67;;;12.97;;
2618;SDS011;1319;52.346;13.096;2023-01-29T04:09:39;24.40;;;12.47;;
2618;SDS011;1319;52.346;13.096;2023-01-29T04:12:08;23.80;;;11.80;;
2618;SDS011;1319;52.346;13.096;2023-01-29T04:14:33;22.53;;;12.43;;
2618;SDS011;1319;52.346;13.096;2023-01-29T04:17:00;25.27;;;12.30;;
2618;SDS011;1319;52.346;13.096;2023-01-29T04:19:26;24.27;;;12.40;;
2618;SDS011;1319;52.346;13.096;2023-01-29T04:21:52;25.70;;;13.27;;
2618;SDS011;1319;52.346;13.096;2023-01-29T04:24:24;23.17;;;13.10;;
2618;SDS011;1319;52.346;13.096;2023-01-29T04:27:11;23.23;;;12.47;;
2618;SDS011;1319;52.346;13.096;2023-01-29T04:34:56;21.87;;;12.20;;
2618;SDS011;1319;52.346;13.096;2023-01-29T04:37:27;26.70;;;13.30;;
2618;SDS011;1319;52.346;13.096;2023-01-29T04:39:59;26.70;;;13.17;;
2618;SDS011;1319;52.346;13.096;2023-01-29T04:42:33;25.43;;;12.87;;
2618;SDS011;1319;52.346;13.096;2023-01-29T04:47:36;27.57;;;13.27;;
2618;SDS011;1319;52.346;13.096;2023-01-29T05:00:13;26.53;;;12.97;;
2618;SDS011;1319;52.346;13.096;2023-01-29T05:02:40;25.73;;;13.00;;
2618;SDS011;1319;52.346;13.096;2023-01-29T05:05:06;24.77;;;13.53;;
2618;SDS011;1319;52.346;13.096;2023-01-29T05:07:32;25.27;;;13.03;;
2618;SDS011;1319;52.346;13.096;2023-01-29T05:09:58;28.80;;;14.33;;
2618;SDS011;1319;52.346;13.096;2023-01-29T05:12:24;25.50;;;13.23;;
2618;SDS011;1319;52.346;13.096;2023-01-29T05:14:50;27.60;;;14.03;;
2618;SDS011;1319;52.346;13.096;2023-01-29T05:17:17;29.10;;;14.00;;
2618;SDS011;1319;52.346;13.096;2023-01-29T05:19:44;31.47;;;13.97;;
2618;SDS011;1319;52.346;13.096;2023-01-29T05:22:10;25.53;;;13.17;;
2618;SDS011;1319;52.346;13.096;2023-01-29T05:24:36;27.63;;;14.17;;
2618;SDS011;1319;52.346;13.096;2023-01-29T05:27:02;27.73;;;13.70;;
2618;SDS011;1319;52.346;13.096;2023-01-29T05:29:46;29.00;;;14.47;;
2618;SDS011;1319;52.346;13.096;2023-01-29T05:32:12;30.03;;;13.93;;
2618;SDS011;1319;52.346;13.096;2023-01-29T05:34:37;29.37;;;14.07;;
2618;SDS011;1319;52.346;13.096;2023-01-29T05:37:03;27.13;;;13.30;;
2618;SDS011;1319;52.346;13.096;2023-01-29T05:39:28;27.73;;;14.03;;
2618;SDS011;1319;52.346;13.096;2023-01-29T05:41:53;32.13;;;14.53;;
2618;SDS011;1319;52.346;13.096;2023-01-29T05:44:18;33.90;;;14.70;;
2618;SDS011;1319;52.346;13.096;2023-01-29T05:46:44;28.27;;;14.77;;
2618;SDS011;1319;52.346;13.096;2023-01-29T05:49:10;33.23;;;15.17;;
2618;SDS011;1319;52.346;13.096;2023-01-29T05:51:35;29.23;;;14.37;;
2618;SDS011;1319;52.346;13.096;2023-01-29T05:54:00;31.87;;;15.50;;
2618;SDS011;1319;52.346;13.096;2023-01-29T05:56:25;32.23;;;14.93;;
2618;SDS011;1319;52.346;13.096;2023-01-29T05:58:51;36.73;;;15.67;;
2618;SDS011;1319;52.346;13.096;2023-01-29T06:01:17;30.57;;;15.70;;
2618;SDS011;1319;52.346;13.096;2023-01-29T06:03:43;35.90;;;16.67;;
2618;SDS011;1319;52.346;13.096;2023-01-29T06:06:09;35.20;;;16.70;;
2618;SDS011;1319;52.346;13.096;2023-01-29T06:08:34;36.50;;;16.93;;
2618;SDS011;1319;52.346;13.096;2023-01-29T06:10:59;38.67;;;16.33;;
2618;SDS011;1319;52.346;13.096;2023-01-29T06:13:24;35.70;;;15.43;;
2618;SDS011;1319;52.346;13.096;2023-01-29T06:15:50;37.23;;;16.90;;
2618;SDS011;1319;52.346;13.096;2023-01-29T06:18:15;40.13;;;17.10;;
2618;SDS011;1319;52.346;13.096;2023-01-29T06:20:40;39.77;;;17.67;;
2618;SDS011;1319;52.346;13.096;2023-01-29T06:23:05;36.87;;;16.57;;
2618;SDS011;1319;52.346;13.096;2023-01-29T06:25:30;41.90;;;17.07;;
2618;SDS011;1319;52.346;13.096;2023-01-29T06:27:56;38.50;;;17.00;;
2618;SDS011;1319;52.346;13.096;2023-01-29T06:30:21;37.77;;;17.33;;
2618;SDS011;1319;52.346;13.096;2023-01-29T06:32:46;40.70;;;17.13;;
2618;SDS011;1319;52.346;13.096;2023-01-29T06:35:11;37.90;;;16.97;;
2618;SDS011;1319;52.346;13.096;2023-01-29T06:37:37;40.20;;;16.53;;
2618;SDS011;1319;52.346;13.096;2023-01-29T06:40:02;38.80;;;16.67;;
2618;SDS011;1319;52.346;13.096;2023-01-29T06:42:27;35.73;;;17.33;;
2618;SDS011;1319;52.346;13.096;2023-01-29T06:44:53;40.53;;;17.63;;
2618;SDS011;1319;52.346;13.096;2023-01-29T06:47:18;37.40;;;16.93;;
2618;SDS011;1319;52.346;13.096;2023-01-29T06:49:44;36.07;;;17.27;;
2618;SDS011;1319;52.346;13.096;2023-01-29T06:52:09;38.73;;;17.00;;
2618;SDS011;1319;52.346;13.096;2023-01-29T06:54:34;39.50;;;18.13;;
2618;SDS011;1319;52.346;13.096;2023-01-29T06:56:59;39.53;;;17.10;;
2618;SDS011;1319;52.346;13.096;2023-01-29T06:59:24;36.80;;;16.63;;
2618;SDS011;1319;52.346;13.096;2023-01-29T07:01:50;36.73;;;16.53;;
2618;SDS011;1319;52.346;13.096;2023-01-29T07:04:15;37.67;;;16.47;;
2618;SDS011;1319;52.346;13.096;2023-01-29T07:06:40;40.47;;;17.97;;
2618;SDS011;1319;52.346;13.096;2023-01-29T07:09:05;39.60;;;17.20;;
2618;SDS011;1319;52.346;13.096;2023-01-29T07:11:31;36.60;;;15.80;;
2618;SDS011;1319;52.346;13.096;2023-01-29T07:13:58;39.87;;;17.37;;
2618;SDS011;1319;52.346;13.096;2023-01-29T07:16:23;40.03;;;17.53;;
2618;SDS011;1319;52.346;13.096;2023-01-29T07:18:50;40.37;;;17.67;;
2618;SDS011;1319;52.346;13.096;2023-01-29T07:21:15;40.53;;;18.07;;
2618;SDS011;1319;52.346;13.096;2023-01-29T07:23:40;43.50;;;18.43;;
2618;SDS011;1319;52.346;13.096;2023-01-29T07:26:06;39.20;;;17.53;;
2618;SDS011;1319;52.346;13.096;2023-01-29T07:28:36;36.57;;;16.10;;
2618;SDS011;1319;52.346;13.096;2023-01-29T07:31:01;38.07;;;17.30;;
2618;SDS011;1319;52.346;13.096;2023-01-29T07:33:27;43.47;;;17.97;;
2618;SDS011;1319;52.346;13.096;2023-01-29T07:35:52;37.40;;;16.93;;
2618;SDS011;1319;52.346;13.096;2023-01-29T07:38:17;39.77;;;17.60;;
2618;SDS011;1319;52.346;13.096;2023-01-29T07:40:43;44.07;;;18.07;;
2618;SDS011;1319;52.346;13.096;2023-01-29T07:43:08;34.87;;;17.20;;
2618;SDS011;1319;52.346;13.096;2023-01-29T07:45:34;39.67;;;17.53;;
2618;SDS011;1319;52.346;13.096;2023-01-29T07:47:59;39.43;;;17.37;;
2618;SDS011;1319;52.346;13.096;2023-01-29T07:50:25;36.47;;;17.27;;
2618;SDS011;1319;52.346;13.096;2023-01-29T07:52:50;41.67;;;16.87;;
2618;SDS011;1319;52.346;13.096;2023-01-29T07:55:16;43.90;;;17.83;;
2618;SDS011;1319;52.346;13.096;2023-01-29T07:57:41;41.80;;;18.03;;
2618;SDS011;1319;52.346;13.096;2023-01-29T08:00:07;38.07;;;17.10;;
2618;SDS011;1319;52.346;13.096;2023-01-29T08:02:32;38.37;;;16.53;;
2618;SDS011;1319;52.346;13.096;2023-01-29T08:04:57;41.93;;;18.20;;
2618;SDS011;1319;52.346;13.096;2023-01-29T08:07:22;39.93;;;18.27;;
2618;SDS011;1319;52.346;13.096;2023-01-29T08:09:47;42.37;;;17.63;;
2618;SDS011;1319;52.346;13.096;2023-01-29T08:12:13;43.70;;;18.30;;
2618;SDS011;1319;52.346;13.096;2023-01-29T08:14:38;44.43;;;17.57;;
2618;SDS011;1319;52.346;13.096;2023-01-29T08:17:04;38.83;;;16.70;;
2618;SDS011;1319;52.346;13.096;2023-01-29T08:19:29;44.30;;;19.23;;
2618;SDS011;1319;52.346;13.096;2023-01-29T08:21:54;39.90;;;18.37;;
2618;SDS011;1319;52.346;13.096;2023-01-29T08:24:19;43.63;;;16.97;;
2618;SDS011;1319;52.346;13.096;2023-01-29T08:26:44;40.73;;;18.23;;
2618;SDS011;1319;52.346;13.096;2023-01-29T08:29:10;35.10;;;16.93;;
2618;SDS011;1319;52.346;13.096;2023-01-29T08:31:35;41.13;;;17.10;;
2618;SDS011;1319;52.346;13.096;2023-01-29T08:34:01;40.23;;;16.50;;
2618;SDS011;1319;52.346;13.096;2023-01-29T08:36:26;36.03;;;15.87;;
2618;SDS011;1319;52.346;13.096;2023-01-29T08:38:51;39.03;;;17.67;;
2618;SDS011;1319;52.346;13.096;2023-01-29T08:41:16;37.20;;;16.70;;
2618;SDS011;1319;52.346;13.096;2023-01-29T08:43:41;37.87;;;15.73;;
2618;SDS011;1319;52.346;13.096;2023-01-29T08:46:07;37.67;;;17.20;;
2618;SDS011;1319;52.346;13.096;2023-01-29T08:48:32;40.47;;;19.33;;
2618;SDS011;1319;52.346;13.096;2023-01-29T08:51:00;39.13;;;16.63;;
2618;SDS011;1319;52.346;13.096;2023-01-29T08:53:26;38.50;;;15.77;;
2618;SDS011;1319;52.346;13.096;2023-01-29T08:55:52;36.03;;;16.70;;
2618;SDS011;1319;52.346;13.096;2023-01-29T08:58:18;35.67;;;16.23;;
2618;SDS011;1319;52.346;13.096;2023-01-29T09:00:43;35.47;;;16.60;;
2618;SDS011;1319;52.346;13.096;2023-01-29T09:03:08;31.03;;;15.90;;
2618;SDS011;1319;52.346;13.096;2023-01-29T09:05:34;35.70;;;15.63;;
2618;SDS011;1319;52.346;13.096;2023-01-29T09:08:00;38.70;;;16.73;;
2618;SDS011;1319;52.346;13.096;2023-01-29T09:10:25;34.70;;;16.43;;
2618;SDS011;1319;52.346;13.096;2023-01-29T09:12:51;32.27;;;15.03;;
2618;SDS011;1319;52.346;13.096;2023-01-29T09:15:16;33.77;;;15.43;;
2618;SDS011;1319;52.346;13.096;2023-01-29T09:17:41;32.87;;;15.30;;
2618;SDS011;1319;52.346;13.096;2023-01-29T09:20:07;35.07;;;14.37;;
2618;SDS011;1319;52.346;13.096;2023-01-29T09:22:33;34.90;;;15.00;;
2618;SDS011;1319;52.346;13.096;2023-01-29T09:24:58;27.30;;;13.87;;
2618;SDS011;1319;52.346;13.096;2023-01-29T09:27:23;33.93;;;16.00;;
2618;SDS011;1319;52.346;13.096;2023-01-29T09:29:49;29.73;;;15.40;;
2618;SDS011;1319;52.346;13.096;2023-01-29T09:32:14;30.50;;;15.07;;
2618;SDS011;1319;52.346;13.096;2023-01-29T09:34:39;31.47;;;14.00;;
2618;SDS011;1319;52.346;13.096;2023-01-29T09:37:04;26.67;;;13.33;;
2618;SDS011;1319;52.346;13.096;2023-01-29T09:39:30;34.93;;;13.40;;
2618;SDS011;1319;52.346;13.096;2023-01-29T09:47:04;27.33;;;13.03;;
2618;SDS011;1319;52.346;13.096;2023-01-29T09:49:36;26.03;;;11.90;;
2618;SDS011;1319;52.346;13.096;2023-01-29T09:52:04;22.87;;;12.13;;
2618;SDS011;1319;52.346;13.096;2023-01-29T09:54:35;23.20;;;12.17;;
2618;SDS011;1319;52.346;13.096;2023-01-29T09:57:09;25.03;;;13.07;;
2618;SDS011;1319;52.346;13.096;2023-01-29T09:59:36;21.07;;;11.43;;
2618;SDS011;1319;52.346;13.096;2023-01-29T10:04:37;19.60;;;11.60;;
2618;SDS011;1319;52.346;13.096;2023-01-29T10:25:16;16.17;;;9.20;;
2618;SDS011;1319;52.346;13.096;2023-01-29T10:27:46;20.50;;;10.27;;
2618;SDS011;1319;52.346;13.096;2023-01-29T10:32:43;16.73;;;9.87;;
2618;SDS011;1319;52.346;13.096;2023-01-29T10:35:55;18.17;;;9.40;;
2618;SDS011;1319;52.346;13.096;2023-01-29T10:37:54;18.20;;;9.50;;
2618;SDS011;1319;52.346;13.096;2023-01-29T10:40:21;14.50;;;8.60;;
2618;SDS011;1319;52.346;13.096;2023-01-29T10:43:09;18.20;;;9.57;;
2618;SDS011;1319;52.346;13.096;2023-01-29T10:48:06;18.20;;;8.80;;
2618;SDS011;1319;52.346;13.096;2023-01-29T10:55:49;16.80;;;9.30;;
2618;SDS011;1319;52.346;13.096;2023-01-29T10:58:25;13.57;;;8.30;;
2618;SDS011;1319;52.346;13.096;2023-01-29T11:00:54;14.63;;;8.67;;
2618;SDS011;1319;52.346;13.096;2023-01-29T11:03:23;15.30;;;9.13;;
2618;SDS011;1319;52.346;13.096;2023-01-29T11:08:36;13.00;;;8.60;;
2618;SDS011;1319;52.346;13.096;2023-01-29T11:11:21;20.40;;;8.90;;
2618;SDS011;1319;52.346;13.096;2023-01-29T11:13:55;14.73;;;8.30;;
2618;SDS011;1319;52.346;13.096;2023-01-29T11:16:21;13.47;;;8.67;;
2618;SDS011;1319;52.346;13.096;2023-01-29T11:18:48;15.97;;;9.43;;
2618;SDS011;1319;52.346;13.096;2023-01-29T11:21:13;14.47;;;8.80;;
2618;SDS011;1319;52.346;13.096;2023-01-29T11:23:40;15.27;;;8.77;;
2618;SDS011;1319;52.346;13.096;2023-01-29T11:26:05;16.70;;;9.40;;
2618;SDS011;1319;52.346;13.096;2023-01-29T11:31:01;16.00;;;9.37;;
2618;SDS011;1319;52.346;13.096;2023-01-29T11:33:26;18.30;;;9.60;;
2618;SDS011;1319;52.346;13.096;2023-01-29T11:35:52;17.47;;;9.57;;
2618;SDS011;1319;52.346;13.096;2023-01-29T11:38:19;16.90;;;9.67;;
2618;SDS011;1319;52.346;13.096;2023-01-29T11:40:45;16.07;;;9.30;;
2618;SDS011;1319;52.346;13.096;2023-01-29T11:45:41;16.57;;;9.90;;
2618;SDS011;1319;52.346;13.096;2023-01-29T11:48:11;16.23;;;8.70;;
2618;SDS011;1319;52.346;13.096;2023-01-29T11:50:38;16.20;;;9.57;;
2618;SDS011;1319;52.346;13.096;2023-01-29T11:53:03;17.23;;;9.23;;
2618;SDS011;1319;52.346;13.096;2023-01-29T11:55:31;17.10;;;9.33;;
2618;SDS011;1319;52.346;13.096;2023-01-29T11:58:04;19.77;;;9.63;;
2618;SDS011;1319;52.346;13.096;2023-01-29T12:00:32;15.27;;;9.27;;
2618;SDS011;1319;52.346;13.096;2023-01-29T12:03:12;16.47;;;9.20;;
2618;SDS011;1319;52.346;13.096;2023-01-29T12:05:39;16.10;;;9.47;;
2618;SDS011;1319;52.346;13.096;2023-01-29T12:08:09;18.50;;;9.13;;
2618;SDS011;1319;52.346;13.096;2023-01-29T12:10:40;17.30;;;9.67;;
2618;SDS011;1319;52.346;13.096;2023-01-29T12:15:34;18.00;;;9.47;;
2618;SDS011;1319;52.346;13.096;2023-01-29T12:18:04;23.27;;;9.07;;
2618;SDS011;1319;52.346;13.096;2023-01-29T12:20:36;18.33;;;10.53;;
2618;SDS011;1319;52.346;13.096;2023-01-29T12:23:16;18.17;;;9.57;;
2618;SDS011;1319;52.346;13.096;2023-01-29T12:25:48;17.83;;;9.97;;
2618;SDS011;1319;52.346;13.096;2023-01-29T12:30:46;17.17;;;9.20;;
2618;SDS011;1319;52.346;13.096;2023-01-29T12:33:19;17.37;;;9.50;;
2618;SDS011;1319;52.346;13.096;2023-01-29T12:35:49;19.57;;;9.93;;
2618;SDS011;1319;52.346;13.096;2023-01-29T12:43:14;18.87;;;9.23;;
2618;SDS011;1319;52.346;13.096;2023-01-29T12:45:40;18.07;;;10.17;;
2618;SDS011;1319;52.346;13.096;2023-01-29T12:48:18;24.73;;;9.97;;
2618;SDS011;1319;52.346;13.096;2023-01-29T12:50:44;18.63;;;9.43;;
2618;SDS011;1319;52.346;13.096;2023-01-29T12:55:43;21.03;;;9.87;;
2618;SDS011;1319;52.346;13.096;2023-01-29T12:58:10;19.27;;;10.00;;
2618;SDS011;1319;52.346;13.096;2023-01-29T13:00:42;19.80;;;9.73;;
2618;SDS011;1319;52.346;13.096;2023-01-29T13:03:21;15.33;;;9.27;;
2618;SDS011;1319;52.346;13.096;2023-01-29T13:08:17;18.43;;;9.27;;
2618;SDS011;1319;52.346;13.096;2023-01-29T13:10:45;20.10;;;9.20;;
2618;SDS011;1319;52.346;13.096;2023-01-29T13:13:13;14.83;;;9.33;;
2618;SDS011;1319;52.346;13.096;2023-01-29T13:15:41;19.37;;;9.43;;
2618;SDS011;1319;52.346;13.096;2023-01-29T13:20:50;16.50;;;9.60;;
2618;SDS011;1319;52.346;13.096;2023-01-29T13:23:22;17.03;;;9.60;;
2618;SDS011;1319;52.346;13.096;2023-01-29T13:25:49;17.33;;;9.40;;
2618;SDS011;1319;52.346;13.096;2023-01-29T13:28:17;18.27;;;8.20;;
2618;SDS011;1319;52.346;13.096;2023-01-29T13:30:43;16.90;;;8.77;;
2618;SDS011;1319;52.346;13.096;2023-01-29T13:33:14;17.03;;;9.33;;
2618;SDS011;1319;52.346;13.096;2023-01-29T13:35:43;15.70;;;8.33;;
2618;SDS011;1319;52.346;13.096;2023-01-29T13:38:29;21.33;;;11.20;;
2618;SDS011;1319;52.346;13.096;2023-01-29T13:41:02;19.50;;;10.23;;
2618;SDS011;1319;52.346;13.096;2023-01-29T13:43:29;19.33;;;10.20;;
2618;SDS011;1319;52.346;13.096;2023-01-29T13:45:57;21.77;;;9.83;;
2618;SDS011;1319;52.346;13.096;2023-01-29T13:48:30;18.03;;;10.63;;
2618;SDS011;1319;52.346;13.096;2023-01-29T13:51:01;18.93;;;10.60;;
2618;SDS011;1319;52.346;13.096;2023-01-29T13:53:34;20.17;;;10.63;;
2618;SDS011;1319;52.346;13.096;2023-01-29T14:01:09;22.40;;;11.30;;
2618;SDS011;1319;52.346;13.096;2023-01-29T14:03:44;25.03;;;11.20;;
2618;SDS011;1319;52.346;13.096;2023-01-29T14:06:34;23.43;;;11.67;;
2618;SDS011;1319;52.346;13.096;2023-01-29T14:08:59;22.00;;;11.03;;
2618;SDS011;1319;52.346;13.096;2023-01-29T14:11:32;21.70;;;11.23;;
2618;SDS011;1319;52.346;13.096;2023-01-29T14:13:58;25.63;;;12.03;;
2618;SDS011;1319;52.346;13.096;2023-01-29T14:21:19;28.53;;;12.70;;
2618;SDS011;1319;52.346;13.096;2023-01-29T14:23:49;24.17;;;12.53;;
2618;SDS011;1319;52.346;13.096;2023-01-29T14:26:28;30.07;;;13.57;;
2618;SDS011;1319;52.346;13.096;2023-01-29T14:31:27;24.93;;;12.80;;
2618;SDS011;1319;52.346;13.096;2023-01-29T14:33:52;28.57;;;13.17;;
2618;SDS011;1319;52.346;13.096;2023-01-29T14:36:17;27.67;;;13.57;;
2618;SDS011;1319;52.346;13.096;2023-01-29T14:38:46;29.27;;;13.50;;
2618;SDS011;1319;52.346;13.096;2023-01-29T14:43:37;29.73;;;14.63;;
2618;SDS011;1319;52.346;13.096;2023-01-29T14:49:05;28.87;;;13.77;;
2618;SDS011;1319;52.346;13.096;2023-01-29T14:51:33;30.50;;;14.10;;
2618;SDS011;1319;52.346;13.096;2023-01-29T14:54:03;32.47;;;14.00;;
2618;SDS011;1319;52.346;13.096;2023-01-29T14:56:33;32.00;;;14.10;;
2618;SDS011;1319;52.346;13.096;2023-01-29T14:59:14;27.30;;;13.53;;
2618;SDS011;1319;52.346;13.096;2023-01-29T15:01:42;28.43;;;13.80;;
2618;SDS011;1319;52.346;13.096;2023-01-29T15:09:19;29.10;;;15.07;;
2618;SDS011;1319;52.346;13.096;2023-01-29T15:11:48;27.47;;;14.17;;
2618;SDS011;1319;52.346;13.096;2023-01-29T15:14:17;28.97;;;14.87;;
2618;SDS011;1319;52.346;13.096;2023-01-29T15:19:18;25.50;;;12.60;;
2618;SDS011;1319;52.346;13.096;2023-01-29T15:24:28;33.47;;;15.93;;
2618;SDS011;1319;52.346;13.096;2023-01-29T15:26:54;30.67;;;14.77;;
2618;SDS011;1319;52.346;13.096;2023-01-29T15:29:22;31.00;;;14.80;;
2618;SDS011;1319;52.346;13.096;2023-01-29T15:31:48;32.53;;;16.60;;
2618;SDS011;1319;52.346;13.096;2023-01-29T15:34:13;33.40;;;16.37;;
2618;SDS011;1319;52.346;13.096;2023-01-29T15:36:38;29.93;;;14.17;;
2618;SDS011;1319;52.346;13.096;2023-01-29T15:39:14;33.90;;;15.53;;
2618;SDS011;1319;52.346;13.096;2023-01-29T15:41:40;36.23;;;16.43;;
2618;SDS011;1319;52.346;13.096;2023-01-29T15:44:13;32.80;;;14.63;;
2618;SDS011;1319;52.346;13.096;2023-01-29T15:46:40;33.53;;;15.70;;
2618;SDS011;1319;52.346;13.096;2023-01-29T15:49:06;35.00;;;15.57;;
2618;SDS011;1319;52.346;13.096;2023-01-29T15:51:32;44.10;;;17.37;;
2618;SDS011;1319;52.346;13.096;2023-01-29T15:53:58;32.13;;;15.23;;
2618;SDS011;1319;52.346;13.096;2023-01-29T15:56:25;38.07;;;16.10;;
2618;SDS011;1319;52.346;13.096;2023-01-29T15:58:52;31.67;;;15.20;;
2618;SDS011;1319;52.346;13.096;2023-01-29T16:01:19;32.87;;;15.07;;
2618;SDS011;1319;52.346;13.096;2023-01-29T16:03:44;33.20;;;16.17;;
2618;SDS011;1319;52.346;13.096;2023-01-29T16:06:10;31.87;;;15.17;;
2618;SDS011;1319;52.346;13.096;2023-01-29T16:08:35;29.83;;;15.00;;
2618;SDS011;1319;52.346;13.096;2023-01-29T16:11:04;30.43;;;16.10;;
2618;SDS011;1319;52.346;13.096;2023-01-29T16:13:31;34.23;;;16.63;;
2618;SDS011;1319;52.346;13.096;2023-01-29T16:16:00;32.40;;;16.27;;
2618;SDS011;1319;52.346;13.096;2023-01-29T16:18:36;34.87;;;16.70;;
2618;SDS011;1319;52.346;13.096;2023-01-29T16:21:06;34.57;;;15.93;;
2618;SDS011;1319;52.346;13.096;2023-01-29T16:23:39;37.90;;;16.80;;
2618;SDS011;1319;52.346;13.096;2023-01-29T16:26:05;31.57;;;14.80;;
2618;SDS011;1319;52.346;13.096;2023-01-29T16:28:32;35.90;;;15.13;;
2618;SDS011;1319;52.346;13.096;2023-01-29T16:30:57;34.93;;;16.83;;
2618;SDS011;1319;52.346;13.096;2023-01-29T16:33:29;36.67;;;16.87;;
2618;SDS011;1319;52.346;13.096;2023-01-29T16:35:57;32.73;;;16.00;;
2618;SDS011;1319;52.346;13.096;2023-01-29T16:38:25;34.93;;;16.03;;
2618;SDS011;1319;52.346;13.096;2023-01-29T16:41:04;31.07;;;16.47;;
2618;SDS011;1319;52.346;13.096;2023-01-29T16:46:04;34.07;;;16.13;;
2618;SDS011;1319;52.346;13.096;2023-01-29T16:48:37;31.00;;;15.80;;
2618;SDS011;1319;52.346;13.096;2023-01-29T16:51:03;40.03;;;16.80;;
2618;SDS011;1319;52.346;13.096;2023-01-29T16:53:29;35.00;;;16.47;;
2618;SDS011;1319;52.346;13.096;2023-01-29T16:55:54;35.33;;;16.60;;
2618;SDS011;1319;52.346;13.096;2023-01-29T16:58:26;33.50;;;15.37;;
2618;SDS011;1319;52.346;13.096;2023-01-29T17:01:05;30.90;;;15.80;;
2618;SDS011;1319;52.346;13.096;2023-01-29T17:03:31;33.13;;;16.60;;
2618;SDS011;1319;52.346;13.096;2023-01-29T17:05:57;32.50;;;15.13;;
2618;SDS011;1319;52.346;13.096;2023-01-29T17:08:28;32.50;;;16.10;;
2618;SDS011;1319;52.346;13.096;2023-01-29T17:10:54;33.40;;;15.63;;